Time;durP1;ratioP1;P1;durP2;ratioP2;P2;SDS_P1;SDS_P2;PMS_P1;PMS_P2;Temp;Humidity;BMP_temperature;BMP_pressure;BME280_temperature;BME280_humidity;BME280_pressure;Samples;Min_cycle;Max_cycle;Signal;HPM_P1;HPM_P2
2021/12/15 00:00:01;;;;;;;38.43;21.57;;;9.60;99.90;;;;;;5068807;28;20286;-54
2021/12/15 00:02:29;;;;;;;40.03;23.00;;;9.60;99.90;;;;;;5067278;28;20332;-56
2021/12/15 00:04:56;;;;;;;37.33;21.03;;;9.60;99.90;;;;;;5067728;28;20199;-55
2021/12/15 00:07:25;;;;;;;42.03;22.43;;;9.70;99.90;;;;;;5071122;28;20226;-55
2021/12/15 00:09:52;;;;;;;39.07;22.43;;;9.60;99.90;;;;;;5068397;28;20300;-54
2021/12/15 00:12:19;;;;;;;41.13;22.23;;;9.60;99.90;;;;;;5072091;28;20907;-56
2021/12/15 00:14:47;;;;;;;38.63;21.17;;;9.70;99.90;;;;;;5069073;28;20299;-55
2021/12/15 00:17:15;;;;;;;40.37;24.23;;;9.70;99.90;;;;;;5064503;28;20207;-55
2021/12/15 00:19:42;;;;;;;38.30;23.20;;;9.60;99.90;;;;;;5064020;28;20254;-55
2021/12/15 00:22:09;;;;;;;37.80;22.17;;;9.60;99.90;;;;;;5060748;28;20236;-54
2021/12/15 00:24:37;;;;;;;42.90;23.10;;;9.60;99.90;;;;;;5063432;28;20199;-57
2021/12/15 00:27:04;;;;;;;39.73;23.40;;;9.60;99.90;;;;;;5074717;28;20329;-54
2021/12/15 00:29:31;;;;;;;46.43;23.83;;;9.60;99.90;;;;;;5065639;28;20218;-54
2021/12/15 00:32:03;;;;;;;41.93;21.87;;;9.60;99.90;;;;;;5073289;28;20599;-56
2021/12/15 00:34:37;;;;;;;42.77;23.23;;;9.60;99.90;;;;;;5062795;28;20303;-54
2021/12/15 00:37:06;;;;;;;40.60;23.33;;;9.70;99.90;;;;;;5066412;28;20531;-55
2021/12/15 00:39:33;;;;;;;44.57;23.93;;;9.60;99.90;;;;;;5065079;28;20243;-54
2021/12/15 00:42:00;;;;;;;47.53;24.33;;;9.50;99.90;;;;;;5070924;28;20200;-54
2021/12/15 00:44:28;;;;;;;42.47;24.20;;;9.60;99.90;;;;;;5066519;28;20589;-54
2021/12/15 00:46:55;;;;;;;44.33;23.40;;;9.50;99.90;;;;;;5068325;28;20687;-56
2021/12/15 00:49:23;;;;;;;45.20;24.27;;;9.50;99.90;;;;;;5067370;28;20855;-55
2021/12/15 00:51:50;;;;;;;43.37;24.53;;;9.50;99.90;;;;;;5069072;28;20253;-55
2021/12/15 00:54:18;;;;;;;47.47;25.50;;;9.50;99.90;;;;;;5066899;28;21092;-56
2021/12/15 00:56:45;;;;;;;45.93;25.87;;;9.50;99.90;;;;;;5065189;28;20297;-55
2021/12/15 00:59:12;;;;;;;52.17;26.33;;;9.50;99.90;;;;;;5069357;28;20266;-55
2021/12/15 01:01:40;;;;;;;43.57;24.27;;;9.50;99.90;;;;;;5065167;28;20724;-55
2021/12/15 01:04:08;;;;;;;49.13;25.87;;;9.50;99.90;;;;;;5066145;28;20211;-55
2021/12/15 01:06:38;;;;;;;51.87;26.83;;;9.50;99.90;;;;;;5065227;28;20212;-56
2021/12/15 01:09:11;;;;;;;49.87;26.73;;;9.50;99.90;;;;;;5082844;28;20246;-55
2021/12/15 01:20:36;;;;;;;48.70;24.90;;;9.50;99.90;;;;;;5067112;28;20294;-57
2021/12/15 01:23:07;;;;;;;51.07;26.30;;;9.50;99.90;;;;;;5073320;28;20200;-57
2021/12/15 01:25:44;;;;;;;51.47;24.70;;;9.50;99.90;;;;;;5076281;28;20220;-56
2021/12/15 01:28:12;;;;;;;46.00;22.30;;;9.50;99.90;;;;;;5067630;28;20204;-56
2021/12/15 01:30:44;;;;;;;47.33;24.60;;;9.40;99.90;;;;;;5071601;28;20240;-56
2021/12/15 01:33:11;;;;;;;49.93;24.87;;;9.50;99.90;;;;;;5071183;28;20656;-56
2021/12/15 01:35:41;;;;;;;47.77;23.10;;;9.50;99.90;;;;;;5068678;28;20633;-55
2021/12/15 01:38:08;;;;;;;47.70;24.67;;;9.50;99.90;;;;;;5071221;28;20215;-55
2021/12/15 01:40:38;;;;;;;50.70;24.83;;;9.50;99.90;;;;;;5064961;28;20358;-54
2021/12/15 01:43:14;;;;;;;48.97;25.13;;;9.50;99.90;;;;;;5069944;28;20224;-54
2021/12/15 01:48:30;;;;;;;50.90;24.33;;;9.50;99.90;;;;;;5063319;28;20245;-56
2021/12/15 01:50:58;;;;;;;47.73;25.10;;;9.40;99.90;;;;;;5070717;28;20296;-55
2021/12/15 01:53:25;;;;;;;45.63;24.60;;;9.50;99.90;;;;;;5068049;28;20241;-54
2021/12/15 01:55:53;;;;;;;51.07;25.17;;;9.40;99.90;;;;;;5068044;28;20200;-55
2021/12/15 01:58:20;;;;;;;47.33;23.53;;;9.40;99.90;;;;;;5069825;28;20285;-56
2021/12/15 02:00:51;;;;;;;49.30;24.63;;;9.40;99.90;;;;;;5070634;28;20840;-56
2021/12/15 02:03:19;;;;;;;44.80;23.70;;;9.40;99.90;;;;;;5070553;28;20221;-53
2021/12/15 02:05:46;;;;;;;48.20;24.13;;;9.40;99.90;;;;;;5069830;28;20304;-57
2021/12/15 02:08:14;;;;;;;44.73;23.40;;;9.40;99.90;;;;;;5068702;28;20296;-55
2021/12/15 02:10:43;;;;;;;53.10;24.90;;;9.40;99.90;;;;;;5070078;28;20235;-55
2021/12/15 02:13:19;;;;;;;51.40;24.17;;;9.40;99.90;;;;;;5070881;28;20239;-57
2021/12/15 02:15:52;;;;;;;55.43;25.87;;;9.40;99.90;;;;;;5073428;28;20500;-55
2021/12/15 02:18:25;;;;;;;51.60;24.70;;;9.50;99.90;;;;;;5068993;28;20202;-56
2021/12/15 02:21:03;;;;;;;52.83;25.00;;;9.50;99.90;;;;;;5070646;28;20209;-58
2021/12/15 02:23:38;;;;;;;51.23;24.13;;;9.50;99.90;;;;;;5074689;28;20253;-54
2021/12/15 02:26:14;;;;;;;47.17;24.87;;;9.50;99.90;;;;;;5072431;28;20215;-55
2021/12/15 02:28:46;;;;;;;47.37;25.03;;;9.40;99.90;;;;;;5069300;28;20654;-55
2021/12/15 02:31:32;;;;;;;51.90;23.63;;;9.50;99.90;;;;;;5074324;28;20195;-57
2021/12/15 02:37:20;;;;;;;49.03;23.87;;;9.50;99.90;;;;;;5035624;28;20197;-56
2021/12/15 02:39:49;;;;;;;50.90;24.93;;;9.50;99.90;;;;;;5069243;28;20900;-56
2021/12/15 02:42:17;;;;;;;50.93;24.87;;;9.50;99.90;;;;;;5069573;28;20300;-55
2021/12/15 02:44:45;;;;;;;51.53;24.10;;;9.50;99.90;;;;;;5077345;28;20200;-55
2021/12/15 02:47:19;;;;;;;47.87;23.33;;;9.50;99.90;;;;;;5069481;28;20206;-54
2021/12/15 02:49:46;;;;;;;47.30;23.27;;;9.50;99.90;;;;;;5068946;28;20302;-57
2021/12/15 02:52:13;;;;;;;49.80;25.20;;;9.50;99.90;;;;;;5062681;28;20265;-57
2021/12/15 02:54:40;;;;;;;44.80;23.33;;;9.50;99.90;;;;;;5071238;28;20203;-56
2021/12/15 02:57:11;;;;;;;48.13;24.17;;;9.60;99.90;;;;;;5068548;28;20204;-53
2021/12/15 02:59:53;;;;;;;47.90;23.03;;;9.50;99.90;;;;;;5065372;28;20583;-55
2021/12/15 03:05:17;;;;;;;45.87;21.27;;;9.60;99.90;;;;;;5066431;28;20625;-56
2021/12/15 03:07:55;;;;;;;48.27;24.27;;;9.60;99.90;;;;;;5067082;28;20296;-55
2021/12/15 03:15:54;;;;;;;46.90;23.83;;;9.60;99.90;;;;;;5067401;28;20815;-55
2021/12/15 03:18:23;;;;;;;43.07;22.70;;;9.60;99.90;;;;;;5068116;28;20291;-53
2021/12/15 03:20:58;;;;;;;48.70;24.10;;;9.60;99.90;;;;;;5068005;28;20237;-55
2021/12/15 03:23:51;;;;;;;40.17;22.57;;;9.60;99.90;;;;;;5070973;28;20367;-54
2021/12/15 03:26:35;;;;;;;42.43;23.13;;;9.60;99.90;;;;;;5072461;28;20280;-57
2021/12/15 03:37:22;;;;;;;43.93;22.80;;;9.60;99.90;;;;;;5065239;28;20645;-55
2021/12/15 03:40:05;;;;;;;41.20;21.27;;;9.70;99.90;;;;;;5069789;28;20308;-55
2021/12/15 03:42:55;;;;;;;39.93;20.87;;;9.60;99.90;;;;;;5067154;28;20218;-54
2021/12/15 03:45:33;;;;;;;41.87;21.83;;;9.50;99.90;;;;;;5072432;28;20315;-55
2021/12/15 03:48:04;;;;;;;40.60;21.07;;;9.50;99.90;;;;;;5072459;28;20202;-55
2021/12/15 03:50:32;;;;;;;46.70;23.30;;;9.50;99.90;;;;;;5062634;28;20213;-55
2021/12/15 03:52:59;;;;;;;46.50;22.53;;;9.60;99.90;;;;;;5069837;28;20584;-54
2021/12/15 03:55:29;;;;;;;38.00;20.13;;;9.60;99.90;;;;;;5068231;28;21460;-57
2021/12/15 03:57:57;;;;;;;42.43;22.40;;;9.50;99.90;;;;;;5069787;28;20392;-57
2021/12/15 04:00:28;;;;;;;45.63;22.10;;;9.50;99.90;;;;;;5069402;28;20317;-56
2021/12/15 04:02:56;;;;;;;43.07;21.13;;;9.50;99.90;;;;;;5074058;28;20202;-56
2021/12/15 04:05:23;;;;;;;42.37;21.27;;;9.50;99.90;;;;;;5066573;28;20653;-55
2021/12/15 04:07:52;;;;;;;40.23;21.83;;;9.50;99.90;;;;;;5065939;28;20352;-54
2021/12/15 04:10:23;;;;;;;41.87;21.87;;;9.50;99.90;;;;;;5065472;28;20305;-55
2021/12/15 04:12:50;;;;;;;45.77;20.67;;;9.60;99.90;;;;;;5068678;28;20296;-55
2021/12/15 04:17:52;;;;;;;38.87;21.13;;;9.50;99.90;;;;;;5062998;28;20622;-55
2021/12/15 04:20:22;;;;;;;42.40;22.17;;;9.50;99.90;;;;;;5066070;28;20317;-57
2021/12/15 04:22:50;;;;;;;42.07;21.10;;;9.50;99.90;;;;;;5072452;28;20228;-55
2021/12/15 04:25:23;;;;;;;42.00;21.70;;;9.50;99.90;;;;;;5069379;28;20203;-54
2021/12/15 04:27:58;;;;;;;43.17;20.43;;;9.50;99.90;;;;;;5064799;28;20263;-56
2021/12/15 04:30:27;;;;;;;38.97;20.77;;;9.60;99.90;;;;;;5074043;28;20673;-54
2021/12/15 04:32:55;;;;;;;42.23;21.73;;;9.60;99.90;;;;;;5067649;28;20260;-55
2021/12/15 04:35:22;;;;;;;40.33;20.63;;;9.50;99.90;;;;;;5068381;28;20216;-56
2021/12/15 04:37:51;;;;;;;42.87;21.47;;;9.60;99.90;;;;;;5076874;28;20241;-55
2021/12/15 04:40:20;;;;;;;43.47;22.57;;;9.60;99.90;;;;;;5076380;28;20225;-57
2021/12/15 04:42:48;;;;;;;40.63;20.57;;;9.60;99.90;;;;;;5077770;28;20263;-56
2021/12/15 04:45:18;;;;;;;40.47;21.30;;;9.50;99.90;;;;;;5075698;28;20198;-56
2021/12/15 04:47:46;;;;;;;37.07;21.63;;;9.50;99.90;;;;;;5070490;28;20202;-55
2021/12/15 04:50:13;;;;;;;39.50;21.37;;;9.60;99.90;;;;;;5075155;28;20338;-53
2021/12/15 04:52:40;;;;;;;47.13;21.27;;;9.60;99.90;;;;;;5086639;28;20335;-52
2021/12/15 04:55:08;;;;;;;38.97;20.77;;;9.50;99.90;;;;;;5085565;28;20621;-55
2021/12/15 04:57:35;;;;;;;41.00;22.40;;;9.60;99.90;;;;;;5083968;28;20221;-53
2021/12/15 05:00:05;;;;;;;42.53;21.67;;;9.50;99.90;;;;;;5086439;28;20272;-52
2021/12/15 05:02:32;;;;;;;40.40;21.77;;;9.60;99.90;;;;;;5079314;28;20214;-54
2021/12/15 05:04:59;;;;;;;39.37;21.77;;;9.50;99.90;;;;;;5072329;28;20817;-53
2021/12/15 05:07:26;;;;;;;41.43;22.23;;;9.50;99.90;;;;;;5073310;28;20211;-52
2021/12/15 05:09:54;;;;;;;41.87;22.00;;;9.60;99.90;;;;;;5068750;28;20205;-54
2021/12/15 05:12:22;;;;;;;37.07;21.13;;;9.60;99.90;;;;;;5076354;28;20242;-53
2021/12/15 05:14:49;;;;;;;41.30;22.13;;;9.60;99.90;;;;;;5067992;28;20220;-53
2021/12/15 05:17:17;;;;;;;47.90;21.87;;;9.60;99.90;;;;;;5066936;28;20215;-54
2021/12/15 05:19:46;;;;;;;40.57;21.07;;;9.60;99.90;;;;;;5072691;28;20267;-53
2021/12/15 05:22:14;;;;;;;39.93;21.03;;;9.60;99.90;;;;;;5073907;28;20207;-52
2021/12/15 05:24:42;;;;;;;44.83;21.70;;;9.60;99.90;;;;;;5076095;28;20209;-56
2021/12/15 05:27:13;;;;;;;41.47;21.77;;;9.60;99.90;;;;;;5071674;28;20601;-54
2021/12/15 05:29:43;;;;;;;42.50;21.63;;;9.50;99.90;;;;;;5075057;28;20198;-54
2021/12/15 05:32:10;;;;;;;43.90;21.67;;;9.60;99.90;;;;;;5079069;28;20270;-55
2021/12/15 05:34:39;;;;;;;45.63;23.10;;;9.60;99.90;;;;;;5070172;28;20268;-55
2021/12/15 05:37:06;;;;;;;43.10;22.37;;;9.60;99.90;;;;;;5073891;28;20380;-54
2021/12/15 05:39:34;;;;;;;40.33;21.93;;;9.60;99.90;;;;;;5074438;28;20221;-52
2021/12/15 05:42:02;;;;;;;43.97;21.07;;;9.60;99.90;;;;;;5076615;28;20216;-53
2021/12/15 05:44:29;;;;;;;43.70;21.90;;;9.60;99.90;;;;;;5073870;28;20243;-53
2021/12/15 05:46:58;;;;;;;46.63;22.57;;;9.60;99.90;;;;;;5074352;28;20207;-51
2021/12/15 05:49:26;;;;;;;44.07;22.40;;;9.60;99.90;;;;;;5068464;28;20278;-52
2021/12/15 05:51:54;;;;;;;44.20;22.17;;;9.60;99.90;;;;;;5074066;28;20722;-53
2021/12/15 05:54:21;;;;;;;43.67;21.10;;;9.60;99.90;;;;;;5073704;28;20203;-53
2021/12/15 05:56:48;;;;;;;45.17;21.67;;;9.60;99.90;;;;;;5064921;28;20211;-53
2021/12/15 05:59:16;;;;;;;43.40;20.90;;;9.60;99.90;;;;;;5075868;28;20231;-55
2021/12/15 06:01:43;;;;;;;47.17;21.67;;;9.60;99.90;;;;;;5085042;28;20889;-53
2021/12/15 06:04:11;;;;;;;46.80;21.97;;;9.60;99.90;;;;;;5075902;28;20198;-52
2021/12/15 06:06:38;;;;;;;45.23;21.43;;;9.60;99.90;;;;;;5070095;28;20219;-53
2021/12/15 06:09:06;;;;;;;43.73;21.17;;;9.60;99.90;;;;;;5077194;28;20229;-54
2021/12/15 06:11:34;;;;;;;41.43;20.83;;;9.60;99.90;;;;;;5071459;28;20196;-53
2021/12/15 06:14:02;;;;;;;46.80;20.93;;;9.70;99.90;;;;;;5078047;28;20263;-51
2021/12/15 06:16:29;;;;;;;47.70;21.80;;;9.70;99.90;;;;;;5070652;28;20221;-55
2021/12/15 06:18:57;;;;;;;44.00;22.30;;;9.70;99.90;;;;;;5075535;28;20756;-53
2021/12/15 06:21:24;;;;;;;44.63;22.03;;;9.70;99.90;;;;;;5071425;28;20214;-54
2021/12/15 06:23:51;;;;;;;47.17;22.10;;;9.70;99.90;;;;;;5074319;28;20198;-54
2021/12/15 06:26:19;;;;;;;42.33;21.20;;;9.70;99.90;;;;;;5075371;28;20207;-53
2021/12/15 06:28:48;;;;;;;47.57;21.90;;;9.70;99.90;;;;;;5073153;28;20198;-52
2021/12/15 06:31:17;;;;;;;45.17;21.50;;;9.80;99.90;;;;;;5071452;28;20259;-54
2021/12/15 06:33:46;;;;;;;52.57;21.93;;;9.80;99.90;;;;;;5067880;28;20288;-52
2021/12/15 06:36:19;;;;;;;44.80;21.57;;;9.80;99.90;;;;;;5068633;28;20256;-52
2021/12/15 06:38:49;;;;;;;47.20;22.03;;;9.80;99.90;;;;;;5069218;28;20670;-53
2021/12/15 06:41:17;;;;;;;52.23;23.20;;;9.80;99.90;;;;;;5069577;28;20236;-52
2021/12/15 06:43:49;;;;;;;51.20;22.97;;;9.70;99.90;;;;;;5073032;28;20694;-52
2021/12/15 06:46:46;;;;;;;52.83;22.27;;;9.70;99.90;;;;;;5069521;28;20263;-53
2021/12/15 06:58:11;;;;;;;51.13;23.57;;;9.80;99.90;;;;;;5065762;28;20295;-53
2021/12/15 07:00:27;;;;;;;48.33;22.10;;;9.70;99.90;;;;;;5066454;28;20257;-53
2021/12/15 07:02:55;;;;;;;52.20;22.57;;;9.70;99.90;;;;;;5071248;28;20279;-54
2021/12/15 07:05:24;;;;;;;50.27;22.20;;;9.70;99.90;;;;;;5072822;28;20203;-54
2021/12/15 07:07:53;;;;;;;54.63;23.27;;;9.70;99.90;;;;;;5067541;28;20201;-54
2021/12/15 07:10:24;;;;;;;54.57;24.27;;;9.70;99.90;;;;;;5064740;28;20211;-52
2021/12/15 07:12:53;;;;;;;58.20;23.70;;;9.70;99.90;;;;;;5068121;28;20210;-54
2021/12/15 07:15:20;;;;;;;54.80;22.43;;;9.80;99.90;;;;;;5066756;28;20284;-52
2021/12/15 07:17:50;;;;;;;56.23;22.63;;;9.70;99.90;;;;;;5067966;28;20308;-52
2021/12/15 07:23:11;;;;;;;54.93;22.83;;;9.80;99.90;;;;;;5070652;28;20194;-53
2021/12/15 07:25:40;;;;;;;55.77;23.17;;;9.80;99.90;;;;;;5075595;28;20235;-52
2021/12/15 07:28:07;;;;;;;53.73;23.10;;;9.80;99.90;;;;;;5074837;28;20203;-52
2021/12/15 07:30:37;;;;;;;57.03;22.80;;;9.80;99.90;;;;;;5078589;28;20262;-52
2021/12/15 07:33:06;;;;;;;49.80;23.17;;;9.70;99.90;;;;;;5075090;28;20624;-53
2021/12/15 07:35:34;;;;;;;47.67;23.17;;;9.80;99.90;;;;;;5075366;28;20231;-52
2021/12/15 07:38:02;;;;;;;61.13;23.90;;;9.80;99.90;;;;;;5067536;28;20668;-53
2021/12/15 07:40:29;;;;;;;53.00;24.03;;;9.80;99.90;;;;;;5063609;28;20354;-53
2021/12/15 07:45:38;;;;;;;48.80;22.63;;;9.80;99.90;;;;;;5079569;28;20343;-52
2021/12/15 07:48:07;;;;;;;48.10;23.40;;;9.80;99.90;;;;;;5074220;28;20642;-54
2021/12/15 07:50:36;;;;;;;58.33;24.23;;;9.80;99.90;;;;;;5071290;28;20206;-51
2021/12/15 07:53:03;;;;;;;56.27;23.73;;;9.80;99.90;;;;;;5073062;28;20233;-53
2021/12/15 07:55:30;;;;;;;51.00;23.80;;;9.80;99.90;;;;;;5073773;28;20199;-52
2021/12/15 07:57:57;;;;;;;52.67;22.90;;;9.80;99.90;;;;;;5072267;28;20254;-52
2021/12/15 08:00:25;;;;;;;53.90;23.53;;;9.80;99.90;;;;;;5073166;28;20583;-52
2021/12/15 08:02:53;;;;;;;52.10;25.03;;;9.80;99.90;;;;;;5077970;28;20201;-53
2021/12/15 08:05:21;;;;;;;50.13;23.50;;;9.80;99.90;;;;;;5072741;28;20202;-52
2021/12/15 08:07:48;;;;;;;57.23;24.63;;;9.90;99.90;;;;;;5073413;28;20373;-53
2021/12/15 08:10:16;;;;;;;56.40;24.77;;;9.90;99.90;;;;;;5070159;28;20326;-52
2021/12/15 08:12:44;;;;;;;55.13;25.13;;;9.90;99.90;;;;;;5076311;28;20206;-53
2021/12/15 08:15:12;;;;;;;51.27;23.40;;;10.00;99.90;;;;;;5072356;28;20294;-51
2021/12/15 08:17:41;;;;;;;80.47;37.87;;;10.00;99.90;;;;;;5080109;28;20226;-51
2021/12/15 08:20:11;;;;;;;77.10;35.57;;;10.00;99.90;;;;;;5070184;28;20313;-54
2021/12/15 08:22:38;;;;;;;58.67;27.07;;;10.00;99.90;;;;;;5075560;28;20282;-53
2021/12/15 08:25:08;;;;;;;54.43;25.83;;;10.00;99.90;;;;;;5075719;28;20225;-53
2021/12/15 08:27:35;;;;;;;52.60;24.97;;;10.00;99.90;;;;;;5073004;28;20703;-55
2021/12/15 08:30:07;;;;;;;60.47;27.47;;;10.00;99.90;;;;;;5074913;28;20233;-53
2021/12/15 08:32:35;;;;;;;55.23;25.43;;;10.00;99.90;;;;;;5080774;28;20250;-53
2021/12/15 08:35:03;;;;;;;49.10;24.63;;;10.00;99.90;;;;;;5076859;28;20677;-51
2021/12/15 08:37:31;;;;;;;61.73;25.37;;;10.00;99.90;;;;;;5076510;28;20250;-52
2021/12/15 08:39:58;;;;;;;52.37;25.13;;;10.00;99.90;;;;;;5076693;28;20319;-54
2021/12/15 08:42:25;;;;;;;54.43;25.70;;;10.00;99.90;;;;;;5074711;28;20218;-53
2021/12/15 08:44:52;;;;;;;53.23;25.60;;;10.10;99.90;;;;;;5080200;28;20237;-53
2021/12/15 08:47:19;;;;;;;59.00;26.83;;;10.10;99.90;;;;;;5080900;28;20198;-54
2021/12/15 08:49:46;;;;;;;54.43;25.80;;;10.10;99.90;;;;;;5062193;28;20301;-53
2021/12/15 08:52:13;;;;;;;52.53;26.17;;;10.00;99.90;;;;;;5060891;28;20252;-51
2021/12/15 08:54:40;;;;;;;53.20;25.30;;;10.10;99.90;;;;;;5076674;28;20208;-52
2021/12/15 08:57:09;;;;;;;53.20;24.60;;;10.00;99.90;;;;;;5073635;28;20206;-52
2021/12/15 08:59:37;;;;;;;53.87;25.97;;;10.00;99.90;;;;;;5073962;28;20206;-52
2021/12/15 09:02:04;;;;;;;53.20;25.30;;;10.00;99.90;;;;;;5077064;28;20757;-53
2021/12/15 09:04:31;;;;;;;50.47;24.90;;;10.00;99.90;;;;;;5077558;28;20200;-53
2021/12/15 09:06:58;;;;;;;46.67;23.70;;;10.10;99.90;;;;;;5074689;28;20655;-52
2021/12/15 09:09:25;;;;;;;50.17;25.93;;;10.10;99.90;;;;;;5082261;28;20243;-54
2021/12/15 09:11:53;;;;;;;53.63;25.43;;;10.10;99.90;;;;;;5074748;28;20198;-51
2021/12/15 09:14:21;;;;;;;44.67;23.93;;;10.10;99.90;;;;;;5079780;28;20279;-51
2021/12/15 09:16:51;;;;;;;52.30;25.77;;;10.10;99.90;;;;;;5069474;28;20284;-55
2021/12/15 09:19:18;;;;;;;46.77;24.67;;;10.20;99.90;;;;;;5075140;28;20720;-53
2021/12/15 09:21:46;;;;;;;47.90;24.40;;;10.20;99.90;;;;;;5065131;28;20588;-55
2021/12/15 09:24:14;;;;;;;50.97;25.00;;;10.20;99.90;;;;;;5077672;28;20780;-53
2021/12/15 09:26:41;;;;;;;55.43;25.20;;;10.20;99.90;;;;;;5074499;28;20203;-51
2021/12/15 09:29:08;;;;;;;52.10;25.40;;;10.20;99.90;;;;;;5080484;28;20647;-53
2021/12/15 09:31:36;;;;;;;49.20;25.20;;;10.20;99.90;;;;;;5069877;28;20295;-53
2021/12/15 09:34:05;;;;;;;48.17;24.53;;;10.20;99.90;;;;;;5072696;28;20206;-53
2021/12/15 09:36:33;;;;;;;49.23;23.77;;;10.20;99.90;;;;;;5071645;28;20298;-53
2021/12/15 09:39:10;;;;;;;46.97;24.20;;;10.20;99.90;;;;;;5063479;28;20585;-54
2021/12/15 09:41:37;;;;;;;48.50;24.63;;;10.20;99.90;;;;;;5067391;28;20283;-53
2021/12/15 09:44:09;;;;;;;48.77;25.40;;;10.20;99.90;;;;;;5066027;28;20226;-55
2021/12/15 09:47:02;;;;;;;51.33;25.47;;;10.20;99.90;;;;;;5070625;28;20289;-52
2021/12/15 10:03:02;;;;;;;62.77;32.03;;;10.40;99.90;;;;;;5074487;28;20301;-54
2021/12/15 10:10:50;;;;;;;48.50;24.17;;;10.50;99.90;;;;;;5076901;28;20723;-51
2021/12/15 10:19:38;;;;;;;41.90;22.47;;;10.50;99.90;;;;;;5064668;28;20253;-52
2021/12/15 10:22:18;;;;;;;40.30;24.17;;;10.50;99.90;;;;;;5075820;28;20301;-51
2021/12/15 10:25:00;;;;;;;38.50;23.03;;;10.50;99.90;;;;;;5069794;28;20218;-50
2021/12/15 10:27:35;;;;;;;51.17;27.73;;;10.50;99.90;;;;;;5074200;28;20617;-50
2021/12/15 10:30:14;;;;;;;46.77;25.83;;;10.60;99.90;;;;;;5070481;28;20191;-52
2021/12/15 10:32:44;;;;;;;43.17;25.07;;;10.60;99.90;;;;;;5068294;28;20240;-51
2021/12/15 10:35:21;;;;;;;41.30;23.90;;;10.60;99.90;;;;;;5068187;28;20371;-50
2021/12/15 10:38:27;;;;;;;35.00;21.53;;;10.60;99.90;;;;;;5076842;28;20199;-50
2021/12/15 10:41:00;;;;;;;41.50;22.53;;;10.70;99.90;;;;;;5066904;28;20223;-50
2021/12/15 10:43:35;;;;;;;41.47;23.93;;;10.60;99.90;;;;;;5075930;28;20207;-53
2021/12/15 10:46:18;;;;;;;41.90;24.50;;;10.60;99.90;;;;;;5075502;28;20295;-53
2021/12/15 10:49:13;;;;;;;39.77;23.00;;;10.60;99.90;;;;;;5073378;28;20264;-54
2021/12/15 10:51:45;;;;;;;38.57;22.90;;;10.60;99.90;;;;;;5077062;28;20352;-51
2021/12/15 10:54:40;;;;;;;39.17;22.50;;;10.70;99.90;;;;;;5075387;28;20594;-53
2021/12/15 10:57:08;;;;;;;40.70;23.07;;;10.70;99.90;;;;;;5073533;28;20671;-53
2021/12/15 10:59:40;;;;;;;40.77;22.50;;;10.70;99.90;;;;;;5070478;28;20219;-52
2021/12/15 11:02:30;;;;;;;38.47;23.57;;;10.70;99.90;;;;;;5079900;28;20233;-52
2021/12/15 11:04:59;;;;;;;41.83;23.07;;;10.80;99.90;;;;;;5070769;28;20306;-53
2021/12/15 11:07:47;;;;;;;38.53;22.30;;;10.70;99.90;;;;;;5076446;28;20224;-50
2021/12/15 11:10:26;;;;;;;44.27;24.03;;;10.80;99.90;;;;;;5077034;28;20247;-51
2021/12/15 11:12:59;;;;;;;35.33;22.57;;;10.80;99.90;;;;;;5079108;28;20266;-52
2021/12/15 11:15:30;;;;;;;35.83;21.23;;;10.90;99.90;;;;;;5076027;28;20215;-52
2021/12/15 11:18:05;;;;;;;38.27;24.33;;;10.90;99.90;;;;;;5075512;28;20267;-53
2021/12/15 11:20:35;;;;;;;38.10;23.27;;;10.90;99.90;;;;;;5077315;28;20705;-52
2021/12/15 11:23:05;;;;;;;34.80;23.00;;;11.00;99.90;;;;;;5076866;28;21093;-52
2021/12/15 11:25:41;;;;;;;35.90;21.30;;;10.90;99.90;;;;;;5079684;28;20266;-51
2021/12/15 11:28:15;;;;;;;40.73;23.07;;;10.90;99.90;;;;;;5074829;28;20217;-52
2021/12/15 11:30:52;;;;;;;39.97;23.60;;;10.90;99.90;;;;;;5073822;28;20194;-52
2021/12/15 11:33:26;;;;;;;39.57;22.87;;;11.00;99.90;;;;;;5078653;28;20225;-52
2021/12/15 11:35:58;;;;;;;41.77;24.00;;;11.00;99.90;;;;;;5075259;28;20644;-53
2021/12/15 11:38:35;;;;;;;40.73;24.47;;;11.00;99.90;;;;;;5076179;28;20240;-51
2021/12/15 11:41:20;;;;;;;38.57;23.87;;;11.10;99.90;;;;;;5078452;28;20312;-53
2021/12/15 11:43:57;;;;;;;37.13;22.67;;;11.00;99.90;;;;;;5078830;28;20720;-52
2021/12/15 11:46:41;;;;;;;39.20;22.70;;;11.00;99.90;;;;;;5074097;28;20210;-53
2021/12/15 11:49:13;;;;;;;42.07;24.60;;;11.00;99.90;;;;;;5068654;28;20225;-53
2021/12/15 11:51:47;;;;;;;36.23;23.03;;;11.00;99.90;;;;;;5078607;28;20312;-52
2021/12/15 11:54:26;;;;;;;39.53;23.40;;;11.00;99.90;;;;;;5081316;28;20204;-52
2021/12/15 11:56:55;;;;;;;36.80;22.80;;;11.00;99.90;;;;;;5069250;28;20641;-52
2021/12/15 11:59:33;;;;;;;35.07;23.43;;;11.00;99.90;;;;;;5080381;28;20297;-52
2021/12/15 12:02:02;;;;;;;39.30;24.07;;;11.00;99.90;;;;;;5074661;28;20275;-52
2021/12/15 12:04:32;;;;;;;50.00;29.83;;;11.10;99.90;;;;;;5073885;28;20196;-52
2021/12/15 12:07:20;;;;;;;33.43;21.60;;;11.00;99.90;;;;;;5072673;28;20206;-53
2021/12/15 12:10:10;;;;;;;34.40;22.73;;;11.00;99.90;;;;;;5080946;28;20194;-51
2021/12/15 12:12:54;;;;;;;37.93;23.30;;;10.90;99.90;;;;;;5079388;28;20289;-51
2021/12/15 12:15:24;;;;;;;36.17;21.70;;;10.90;99.90;;;;;;5078390;28;20838;-53
2021/12/15 12:17:54;;;;;;;36.23;22.60;;;10.90;99.90;;;;;;5078157;28;20659;-51
2021/12/15 12:20:28;;;;;;;33.83;22.30;;;11.10;99.90;;;;;;5068460;28;20621;-51
2021/12/15 12:22:56;;;;;;;36.30;22.47;;;11.10;99.90;;;;;;5077943;28;20271;-52
2021/12/15 12:25:27;;;;;;;37.70;22.53;;;11.10;99.90;;;;;;5087272;28;20198;-54
2021/12/15 12:27:56;;;;;;;35.23;21.80;;;11.10;99.90;;;;;;5073712;28;20281;-52
2021/12/15 12:30:39;;;;;;;34.97;21.80;;;11.00;99.90;;;;;;5089147;28;20400;-52
2021/12/15 12:33:09;;;;;;;39.00;22.30;;;11.10;99.90;;;;;;5075153;28;20286;-52
2021/12/15 12:35:45;;;;;;;33.53;22.63;;;11.10;99.90;;;;;;5071303;28;20833;-51
2021/12/15 12:38:19;;;;;;;37.67;26.33;;;11.10;99.90;;;;;;5074920;28;20717;-53
2021/12/15 12:40:57;;;;;;;36.30;22.70;;;11.20;99.90;;;;;;5070827;28;20227;-54
2021/12/15 12:43:29;;;;;;;34.77;22.27;;;11.20;99.90;;;;;;5073234;28;20241;-52
2021/12/15 12:46:13;;;;;;;34.30;21.53;;;11.20;99.90;;;;;;5060492;28;20715;-52
2021/12/15 12:59:54;;;;;;;32.50;20.47;;;11.50;99.90;;;;;;5071285;28;20286;-56
2021/12/15 13:02:30;;;;;;;28.93;19.50;;;11.50;99.90;;;;;;5073796;28;20215;-52
2021/12/15 13:04:57;;;;;;;28.37;18.07;;;11.50;99.90;;;;;;5071763;28;20236;-54
2021/12/15 13:07:44;;;;;;;27.77;17.73;;;11.60;99.90;;;;;;5064981;28;20258;-53
2021/12/15 13:10:12;;;;;;;29.90;18.93;;;11.70;99.90;;;;;;5068876;28;20226;-54
2021/12/15 13:12:47;;;;;;;41.30;27.23;;;11.80;99.90;;;;;;5065704;28;20259;-54
2021/12/15 13:15:19;;;;;;;24.53;17.83;;;11.70;99.90;;;;;;5073324;28;20211;-53
2021/12/15 13:18:03;;;;;;;24.10;17.60;;;11.80;99.90;;;;;;5063485;28;20245;-53
2021/12/15 13:20:34;;;;;;;25.47;16.93;;;11.80;99.90;;;;;;5061417;28;20286;-53
2021/12/15 13:23:18;;;;;;;23.40;16.87;;;11.80;99.90;;;;;;5069156;28;20952;-52
2021/12/15 13:28:45;;;;;;;24.77;16.30;;;11.60;99.90;;;;;;5072110;28;20226;-51
2021/12/15 13:31:19;;;;;;;22.13;16.47;;;11.60;99.90;;;;;;5072708;28;20296;-53
2021/12/15 13:33:51;;;;;;;26.57;15.40;;;11.70;99.90;;;;;;5071656;28;20204;-52
2021/12/15 13:36:26;;;;;;;19.80;15.17;;;11.60;99.90;;;;;;5072438;28;20210;-53
2021/12/15 13:39:04;;;;;;;23.53;15.77;;;11.70;99.90;;;;;;5069822;28;20288;-54
2021/12/15 13:41:41;;;;;;;23.33;15.47;;;11.70;99.90;;;;;;5071409;28;20277;-52
2021/12/15 13:44:35;;;;;;;25.97;16.97;;;11.70;99.90;;;;;;5071496;28;20671;-53
2021/12/15 13:47:16;;;;;;;25.23;15.83;;;11.70;99.90;;;;;;5071666;28;20229;-50
2021/12/15 13:49:57;;;;;;;26.73;16.43;;;11.60;99.90;;;;;;5071042;28;20718;-52
2021/12/15 13:52:44;;;;;;;23.33;15.17;;;11.60;99.90;;;;;;5070396;28;20243;-52
2021/12/15 13:55:22;;;;;;;21.53;14.80;;;11.60;99.90;;;;;;5072692;28;20699;-51
2021/12/15 13:58:13;;;;;;;22.27;15.33;;;11.70;99.90;;;;;;5074889;28;20194;-51
2021/12/15 14:00:42;;;;;;;20.43;14.93;;;11.50;99.90;;;;;;5058859;28;21214;-54
2021/12/15 14:03:24;;;;;;;22.83;14.73;;;11.60;99.90;;;;;;5069112;28;20267;-54
2021/12/15 14:06:08;;;;;;;22.37;15.90;;;11.50;99.90;;;;;;5071747;28;20202;-55
2021/12/15 14:08:42;;;;;;;21.67;16.00;;;11.60;99.90;;;;;;5062460;28;20210;-52
2021/12/15 14:11:27;;;;;;;21.67;15.07;;;11.60;99.90;;;;;;5064441;28;20721;-52
2021/12/15 14:14:02;;;;;;;23.57;15.73;;;11.50;99.90;;;;;;5074778;28;20259;-53
2021/12/15 14:16:39;;;;;;;24.43;15.70;;;11.50;99.90;;;;;;5063260;28;20199;-53
2021/12/15 14:19:10;;;;;;;21.37;15.37;;;11.40;99.90;;;;;;5067619;28;20204;-54
2021/12/15 14:21:38;;;;;;;22.20;16.10;;;11.40;99.90;;;;;;5064611;28;20211;-54